sensor_id;sensor_type;location;lat;lon;timestamp;pressure;altitude;pressure_sealevel;temperature;humidity
59409;BME280;45213;32.654;-115.458;2023-04-19T00:00:40;100763.44;;;28.08;11.62
59409;BME280;45213;32.654;-115.458;2023-04-19T00:03:08;100766.78;;;27.97;11.13
59409;BME280;45213;32.654;-115.458;2023-04-19T00:05:36;100751.75;;;28.09;11.86
59409;BME280;45213;32.654;-115.458;2023-04-19T00:08:06;100754.91;;;28.16;11.38
59409;BME280;45213;32.654;-115.458;2023-04-19T00:10:33;100753.84;;;28.45;11.94
59409;BME280;45213;32.654;-115.458;2023-04-19T00:13:05;100749.84;;;28.52;11.57
59409;BME280;45213;32.654;-115.458;2023-04-19T00:15:32;100751.38;;;28.42;11.08
59409;BME280;45213;32.654;-115.458;2023-04-19T00:18:00;100737.63;;;28.61;10.69
59409;BME280;45213;32.654;-115.458;2023-04-19T00:20:26;100753.69;;;28.34;11.64
59409;BME280;45213;32.654;-115.458;2023-04-19T00:22:53;100753.59;;;28.08;12.62
59409;BME280;45213;32.654;-115.458;2023-04-19T00:25:20;100767.06;;;28.07;12.72
59409;BME280;45213;32.654;-115.458;2023-04-19T00:27:46;100756.41;;;28.20;11.85
59409;BME280;45213;32.654;-115.458;2023-04-19T00:30:13;100758.53;;;28.15;11.90
59409;BME280;45213;32.654;-115.458;2023-04-19T00:32:39;100756.50;;;28.18;11.89
59409;BME280;45213;32.654;-115.458;2023-04-19T00:35:06;100754.13;;;28.14;11.07
59409;BME280;45213;32.654;-115.458;2023-04-19T00:37:33;100749.03;;;27.96;11.16
59409;BME280;45213;32.654;-115.458;2023-04-19T00:39:59;100756.66;;;28.02;10.79
59409;BME280;45213;32.654;-115.458;2023-04-19T00:42:26;100751.97;;;28.33;10.93
59409;BME280;45213;32.654;-115.458;2023-04-19T00:44:52;100764.25;;;27.96;11.59
59409;BME280;45213;32.654;-115.458;2023-04-19T00:47:19;100774.81;;;27.83;11.28
59409;BME280;45213;32.654;-115.458;2023-04-19T00:49:46;100765.97;;;27.54;10.97
59409;BME280;45213;32.654;-115.458;2023-04-19T00:52:13;100761.25;;;27.43;11.31
59409;BME280;45213;32.654;-115.458;2023-04-19T00:54:41;100762.03;;;27.31;11.08
59409;BME280;45213;32.654;-115.458;2023-04-19T00:57:08;100745.91;;;27.32;11.37
59409;BME280;45213;32.654;-115.458;2023-04-19T00:59:35;100751.72;;;27.24;10.74
59409;BME280;45213;32.654;-115.458;2023-04-19T01:02:02;100748.03;;;27.11;10.28
59409;BME280;45213;32.654;-115.458;2023-04-19T01:04:29;100743.63;;;26.96;10.36
59409;BME280;45213;32.654;-115.458;2023-04-19T01:06:56;100745.69;;;26.91;10.32
59409;BME280;45213;32.654;-115.458;2023-04-19T01:09:22;100749.41;;;26.88;10.18
59409;BME280;45213;32.654;-115.458;2023-04-19T01:11:49;100740.34;;;26.76;10.18
59409;BME280;45213;32.654;-115.458;2023-04-19T01:14:16;100741.81;;;26.66;10.45
59409;BME280;45213;32.654;-115.458;2023-04-19T01:16:45;100750.00;;;26.63;9.87
59409;BME280;45213;32.654;-115.458;2023-04-19T01:19:13;100739.53;;;26.60;9.90
59409;BME280;45213;32.654;-115.458;2023-04-19T01:21:39;100747.81;;;26.55;9.57
59409;BME280;45213;32.654;-115.458;2023-04-19T01:24:07;100741.75;;;26.52;9.82
59409;BME280;45213;32.654;-115.458;2023-04-19T01:26:34;100744.09;;;26.42;10.08
59409;BME280;45213;32.654;-115.458;2023-04-19T01:29:01;100735.91;;;26.29;10.00
59409;BME280;45213;32.654;-115.458;2023-04-19T01:31:28;100732.47;;;26.27;9.79
59409;BME280;45213;32.654;-115.458;2023-04-19T01:33:55;100732.16;;;26.17;9.75
59409;BME280;45213;32.654;-115.458;2023-04-19T01:36:22;100716.59;;;26.10;9.63
59409;BME280;45213;32.654;-115.458;2023-04-19T01:38:49;100723.38;;;25.99;9.36
59409;BME280;45213;32.654;-115.458;2023-04-19T01:41:16;100727.16;;;25.95;9.25
59409;BME280;45213;32.654;-115.458;2023-04-19T01:43:42;100722.56;;;25.81;8.96
59409;BME280;45213;32.654;-115.458;2023-04-19T01:46:09;100720.16;;;25.77;9.18
59409;BME280;45213;32.654;-115.458;2023-04-19T01:48:37;100720.06;;;25.62;9.03
59409;BME280;45213;32.654;-115.458;2023-04-19T01:51:03;100719.28;;;25.60;9.17
59409;BME280;45213;32.654;-115.458;2023-04-19T01:53:33;100726.22;;;25.47;9.34
59409;BME280;45213;32.654;-115.458;2023-04-19T01:56:00;100727.03;;;25.32;9.99
59409;BME280;45213;32.654;-115.458;2023-04-19T01:58:26;100741.97;;;25.18;10.61
59409;BME280;45213;32.654;-115.458;2023-04-19T02:00:53;100740.00;;;25.05;10.72
59409;BME280;45213;32.654;-115.458;2023-04-19T02:03:20;100737.91;;;24.94;11.49
59409;BME280;45213;32.654;-115.458;2023-04-19T02:05:48;100752.44;;;24.87;11.55
59409;BME280;45213;32.654;-115.458;2023-04-19T02:08:15;100747.75;;;24.74;11.88
59409;BME280;45213;32.654;-115.458;2023-04-19T02:10:41;100747.50;;;24.62;11.80
59409;BME280;45213;32.654;-115.458;2023-04-19T02:13:08;100747.13;;;24.52;12.19
59409;BME280;45213;32.654;-115.458;2023-04-19T02:15:38;100745.84;;;24.42;12.40
59409;BME280;45213;32.654;-115.458;2023-04-19T02:18:05;100743.84;;;24.28;12.73
59409;BME280;45213;32.654;-115.458;2023-04-19T02:20:32;100750.31;;;24.22;13.14
59409;BME280;45213;32.654;-115.458;2023-04-19T02:22:58;100742.78;;;24.13;13.26
59409;BME280;45213;32.654;-115.458;2023-04-19T02:25:26;100746.59;;;23.88;13.95
59409;BME280;45213;32.654;-115.458;2023-04-19T02:27:53;100759.53;;;23.77;14.53
59409;BME280;45213;32.654;-115.458;2023-04-19T02:30:20;100768.47;;;23.76;14.89
59409;BME280;45213;32.654;-115.458;2023-04-19T02:32:47;100770.13;;;23.58;14.89
59409;BME280;45213;32.654;-115.458;2023-04-19T02:35:14;100774.91;;;23.50;15.03
59409;BME280;45213;32.654;-115.458;2023-04-19T02:37:43;100780.59;;;23.42;15.24
59409;BME280;45213;32.654;-115.458;2023-04-19T02:40:10;100786.16;;;23.36;15.55
59409;BME280;45213;32.654;-115.458;2023-04-19T02:42:37;100790.16;;;23.26;15.78
59409;BME280;45213;32.654;-115.458;2023-04-19T02:45:04;100786.31;;;23.12;16.33
59409;BME280;45213;32.654;-115.458;2023-04-19T02:47:31;100783.06;;;23.06;16.75
59409;BME280;45213;32.654;-115.458;2023-04-19T02:49:59;100783.91;;;23.06;16.94
59409;BME280;45213;32.654;-115.458;2023-04-19T02:52:26;100788.63;;;23.00;17.21
59409;BME280;45213;32.654;-115.458;2023-04-19T02:54:53;100792.38;;;22.94;17.49
59409;BME280;45213;32.654;-115.458;2023-04-19T02:57:19;100786.28;;;22.92;17.64
59409;BME280;45213;32.654;-115.458;2023-04-19T02:59:47;100789.59;;;22.97;17.92
59409;BME280;45213;32.654;-115.458;2023-04-19T03:02:14;100791.44;;;22.95;18.20
59409;BME280;45213;32.654;-115.458;2023-04-19T03:04:40;100791.31;;;22.98;17.82
59409;BME280;45213;32.654;-115.458;2023-04-19T03:07:09;100795.16;;;22.91;18.72
59409;BME280;45213;32.654;-115.458;2023-04-19T03:09:36;100795.53;;;22.82;19.01
59409;BME280;45213;32.654;-115.458;2023-04-19T03:12:03;100795.53;;;22.82;19.20
59409;BME280;45213;32.654;-115.458;2023-04-19T03:14:30;100802.69;;;22.80;19.27
59409;BME280;45213;32.654;-115.458;2023-04-19T03:16:59;100808.41;;;22.70;19.73
59409;BME280;45213;32.654;-115.458;2023-04-19T03:19:26;100819.16;;;22.67;19.71
59409;BME280;45213;32.654;-115.458;2023-04-19T03:21:52;100823.09;;;22.57;20.33
59409;BME280;45213;32.654;-115.458;2023-04-19T03:24:30;100827.19;;;22.44;20.42
59409;BME280;45213;32.654;-115.458;2023-04-19T03:27:03;100825.66;;;22.37;20.59
59409;BME280;45213;32.654;-115.458;2023-04-19T03:29:30;100830.47;;;22.27;20.44
59409;BME280;45213;32.654;-115.458;2023-04-19T03:32:06;100837.41;;;22.31;20.74
59409;BME280;45213;32.654;-115.458;2023-04-19T03:34:33;100838.22;;;22.33;20.08
59409;BME280;45213;32.654;-115.458;2023-04-19T03:36:59;100846.22;;;22.31;16.86
59409;BME280;45213;32.654;-115.458;2023-04-19T03:39:26;100845.25;;;22.56;15.38
59409;BME280;45213;32.654;-115.458;2023-04-19T03:41:59;100851.50;;;22.55;15.47
59409;BME280;45213;32.654;-115.458;2023-04-19T03:44:48;100844.59;;;22.51;16.91
59409;BME280;45213;32.654;-115.458;2023-04-19T03:47:16;100851.47;;;22.33;17.36
59409;BME280;45213;32.654;-115.458;2023-04-19T03:49:47;100863.50;;;22.18;17.11
59409;BME280;45213;32.654;-115.458;2023-04-19T03:52:14;100862.69;;;22.16;17.58
59409;BME280;45213;32.654;-115.458;2023-04-19T03:54:41;100858.88;;;22.00;19.20
59409;BME280;45213;32.654;-115.458;2023-04-19T03:57:17;100860.38;;;21.83;19.52
59409;BME280;45213;32.654;-115.458;2023-04-19T03:59:43;100861.28;;;21.82;18.46
59409;BME280;45213;32.654;-115.458;2023-04-19T04:02:10;100855.06;;;21.83;17.17
59409;BME280;45213;32.654;-115.458;2023-04-19T04:04:37;100857.44;;;21.91;16.88
59409;BME280;45213;32.654;-115.458;2023-04-19T04:07:04;100855.25;;;22.02;16.48
59409;BME280;45213;32.654;-115.458;2023-04-19T04:09:31;100842.75;;;22.06;16.08
59409;BME280;45213;32.654;-115.458;2023-04-19T04:11:58;100844.72;;;22.01;16.52
59409;BME280;45213;32.654;-115.458;2023-04-19T04:14:25;100845.38;;;21.82;16.73
59409;BME280;45213;32.654;-115.458;2023-04-19T04:16:52;100848.47;;;21.70;17.08
59409;BME280;45213;32.654;-115.458;2023-04-19T04:19:20;100846.72;;;21.45;17.72
59409;BME280;45213;32.654;-115.458;2023-04-19T04:21:47;100852.81;;;21.21;17.83
59409;BME280;45213;32.654;-115.458;2023-04-19T04:24:15;100869.53;;;20.96;17.93
59409;BME280;45213;32.654;-115.458;2023-04-19T04:26:57;100872.19;;;20.96;18.16
59409;BME280;45213;32.654;-115.458;2023-04-19T04:29:31;100880.81;;;21.03;18.25
59409;BME280;45213;32.654;-115.458;2023-04-19T04:31:59;100883.56;;;20.72;19.07
59409;BME280;45213;32.654;-115.458;2023-04-19T04:34:33;100899.47;;;20.70;19.58
59409;BME280;45213;32.654;-115.458;2023-04-19T04:37:06;100897.09;;;20.62;20.37
59409;BME280;45213;32.654;-115.458;2023-04-19T04:39:35;100906.72;;;20.34;21.21
59409;BME280;45213;32.654;-115.458;2023-04-19T04:42:05;100921.59;;;20.38;21.06
59409;BME280;45213;32.654;-115.458;2023-04-19T04:44:35;100929.41;;;20.41;20.80
59409;BME280;45213;32.654;-115.458;2023-04-19T04:47:02;100953.09;;;20.45;20.61
59409;BME280;45213;32.654;-115.458;2023-04-19T04:49:34;100955.47;;;20.56;20.43
59409;BME280;45213;32.654;-115.458;2023-04-19T04:52:01;100962.22;;;20.67;20.30
59409;BME280;45213;32.654;-115.458;2023-04-19T04:54:31;100967.09;;;20.80;20.49
59409;BME280;45213;32.654;-115.458;2023-04-19T04:56:59;100970.50;;;20.84;20.78
59409;BME280;45213;32.654;-115.458;2023-04-19T04:59:26;100979.44;;;20.80;21.24
59409;BME280;45213;32.654;-115.458;2023-04-19T05:01:53;100977.03;;;20.72;21.78
59409;BME280;45213;32.654;-115.458;2023-04-19T05:04:19;100978.78;;;20.42;23.21
59409;BME280;45213;32.654;-115.458;2023-04-19T05:06:46;100989.94;;;20.20;24.18
59409;BME280;45213;32.654;-115.458;2023-04-19T05:09:19;100990.03;;;20.17;24.33
59409;BME280;45213;32.654;-115.458;2023-04-19T05:11:46;101001.13;;;19.99;25.95
59409;BME280;45213;32.654;-115.458;2023-04-19T05:14:12;101007.38;;;19.95;26.04
59409;BME280;45213;32.654;-115.458;2023-04-19T05:16:39;101004.88;;;19.90;26.67
59409;BME280;45213;32.654;-115.458;2023-04-19T05:19:06;100997.22;;;19.79;26.67
59409;BME280;45213;32.654;-115.458;2023-04-19T05:21:39;100998.88;;;19.84;26.35
59409;BME280;45213;32.654;-115.458;2023-04-19T05:24:07;100989.13;;;19.86;26.09
59409;BME280;45213;32.654;-115.458;2023-04-19T05:26:35;100992.03;;;19.75;25.80
59409;BME280;45213;32.654;-115.458;2023-04-19T05:29:04;100982.28;;;19.78;25.41
59409;BME280;45213;32.654;-115.458;2023-04-19T05:31:52;100985.81;;;19.77;25.53
59409;BME280;45213;32.654;-115.458;2023-04-19T05:34:31;100985.09;;;19.71;25.49
59409;BME280;45213;32.654;-115.458;2023-04-19T05:36:59;100988.66;;;19.68;24.52
59409;BME280;45213;32.654;-115.458;2023-04-19T05:39:26;100983.94;;;19.83;24.25
59409;BME280;45213;32.654;-115.458;2023-04-19T05:41:52;100985.88;;;19.76;24.32
59409;BME280;45213;32.654;-115.458;2023-04-19T05:44:19;100986.84;;;19.72;25.01
59409;BME280;45213;32.654;-115.458;2023-04-19T05:46:45;100986.28;;;19.57;26.17
59409;BME280;45213;32.654;-115.458;2023-04-19T05:49:16;100984.03;;;19.42;26.24
59409;BME280;45213;32.654;-115.458;2023-04-19T05:52:01;100988.53;;;19.38;26.63
59409;BME280;45213;32.654;-115.458;2023-04-19T05:54:49;100991.47;;;19.26;27.25
59409;BME280;45213;32.654;-115.458;2023-04-19T05:57:16;100980.72;;;19.32;27.16
59409;BME280;45213;32.654;-115.458;2023-04-19T05:59:43;100977.22;;;19.33;26.72
59409;BME280;45213;32.654;-115.458;2023-04-19T06:02:11;100982.66;;;19.26;27.17
59409;BME280;45213;32.654;-115.458;2023-04-19T06:04:38;100986.44;;;19.15;27.36
59409;BME280;45213;32.654;-115.458;2023-04-19T06:07:06;100990.69;;;19.21;26.92
59409;BME280;45213;32.654;-115.458;2023-04-19T06:09:33;100990.84;;;19.15;26.71
59409;BME280;45213;32.654;-115.458;2023-04-19T06:11:59;101001.47;;;19.12;27.16
59409;BME280;45213;32.654;-115.458;2023-04-19T06:14:27;100999.59;;;19.17;27.81
59409;BME280;45213;32.654;-115.458;2023-04-19T06:16:56;100990.22;;;19.04;28.32
59409;BME280;45213;32.654;-115.458;2023-04-19T06:19:23;100985.41;;;18.82;28.22
59409;BME280;45213;32.654;-115.458;2023-04-19T06:21:49;100984.31;;;18.92;27.76
59409;BME280;45213;32.654;-115.458;2023-04-19T06:24:16;100988.75;;;18.90;28.05
59409;BME280;45213;32.654;-115.458;2023-04-19T06:26:43;100986.25;;;18.84;28.34
59409;BME280;45213;32.654;-115.458;2023-04-19T06:29:09;100971.47;;;18.77;28.31
59409;BME280;45213;32.654;-115.458;2023-04-19T06:31:36;100989.69;;;18.88;27.76
59409;BME280;45213;32.654;-115.458;2023-04-19T06:34:02;100975.44;;;18.96;27.23
59409;BME280;45213;32.654;-115.458;2023-04-19T06:36:29;100980.72;;;18.96;26.69
59409;BME280;45213;32.654;-115.458;2023-04-19T06:38:56;100993.91;;;18.96;26.66
59409;BME280;45213;32.654;-115.458;2023-04-19T06:41:22;100989.38;;;19.02;26.66
59409;BME280;45213;32.654;-115.458;2023-04-19T06:43:49;100985.84;;;19.03;26.52
59409;BME280;45213;32.654;-115.458;2023-04-19T06:46:16;100982.63;;;18.90;26.82
59409;BME280;45213;32.654;-115.458;2023-04-19T06:48:42;100988.00;;;18.85;26.96
59409;BME280;45213;32.654;-115.458;2023-04-19T06:51:09;100995.06;;;18.83;26.24
59409;BME280;45213;32.654;-115.458;2023-04-19T06:53:35;100991.66;;;18.78;26.78
59409;BME280;45213;32.654;-115.458;2023-04-19T06:56:03;100995.38;;;18.66;26.30
59409;BME280;45213;32.654;-115.458;2023-04-19T06:58:30;101002.44;;;18.66;26.35
59409;BME280;45213;32.654;-115.458;2023-04-19T07:01:00;100990.22;;;18.62;26.20
59409;BME280;45213;32.654;-115.458;2023-04-19T07:03:27;100993.88;;;18.54;26.37
59409;BME280;45213;32.654;-115.458;2023-04-19T07:05:54;100990.91;;;18.28;26.21
59409;BME280;45213;32.654;-115.458;2023-04-19T07:08:25;101006.72;;;18.28;26.37
59409;BME280;45213;32.654;-115.458;2023-04-19T07:10:52;101010.94;;;18.36;25.52
59409;BME280;45213;32.654;-115.458;2023-04-19T07:13:19;101005.06;;;18.24;25.62
59409;BME280;45213;32.654;-115.458;2023-04-19T07:15:45;101008.66;;;18.20;26.08
59409;BME280;45213;32.654;-115.458;2023-04-19T07:18:12;101007.88;;;18.13;26.17
59409;BME280;45213;32.654;-115.458;2023-04-19T07:20:41;101008.84;;;18.09;26.78
59409;BME280;45213;32.654;-115.458;2023-04-19T07:23:10;101005.53;;;17.98;26.68
59409;BME280;45213;32.654;-115.458;2023-04-19T07:25:37;101003.06;;;17.88;26.88
59409;BME280;45213;32.654;-115.458;2023-04-19T07:28:03;101007.50;;;17.85;26.70
59409;BME280;45213;32.654;-115.458;2023-04-19T07:30:30;101016.31;;;17.84;26.93
59409;BME280;45213;32.654;-115.458;2023-04-19T07:32:56;101014.59;;;17.80;26.61
59409;BME280;45213;32.654;-115.458;2023-04-19T07:35:23;101022.53;;;17.78;26.05
59409;BME280;45213;32.654;-115.458;2023-04-19T07:37:49;101016.38;;;17.78;25.69
59409;BME280;45213;32.654;-115.458;2023-04-19T07:40:16;101014.63;;;17.78;25.18
59409;BME280;45213;32.654;-115.458;2023-04-19T07:42:42;101023.50;;;17.72;25.26
59409;BME280;45213;32.654;-115.458;2023-04-19T07:45:09;101014.59;;;17.83;24.70
59409;BME280;45213;32.654;-115.458;2023-04-19T07:47:36;101018.09;;;17.80;24.79
59409;BME280;45213;32.654;-115.458;2023-04-19T07:50:03;101019.78;;;17.86;24.51
59409;BME280;45213;32.654;-115.458;2023-04-19T07:52:30;101018.13;;;17.79;24.63
59409;BME280;45213;32.654;-115.458;2023-04-19T07:54:57;101004.91;;;17.83;24.33
59409;BME280;45213;32.654;-115.458;2023-04-19T07:57:24;101008.53;;;17.74;24.02
59409;BME280;45213;32.654;-115.458;2023-04-19T07:59:51;101008.59;;;17.71;23.87
59409;BME280;45213;32.654;-115.458;2023-04-19T08:02:21;101019.00;;;17.78;23.50
59409;BME280;45213;32.654;-115.458;2023-04-19T08:04:47;101014.44;;;17.92;23.04
59409;BME280;45213;32.654;-115.458;2023-04-19T08:07:14;101015.19;;;17.99;22.32
59409;BME280;45213;32.654;-115.458;2023-04-19T08:09:41;101016.84;;;18.03;21.99
59409;BME280;45213;32.654;-115.458;2023-04-19T08:12:08;101013.41;;;17.99;21.40
59409;BME280;45213;32.654;-115.458;2023-04-19T08:14:34;101002.97;;;17.94;21.65
59409;BME280;45213;32.654;-115.458;2023-04-19T08:17:01;101009.09;;;17.93;20.95
59409;BME280;45213;32.654;-115.458;2023-04-19T08:19:29;101014.28;;;17.98;21.01
59409;BME280;45213;32.654;-115.458;2023-04-19T08:21:56;101018.63;;;18.02;20.67
59409;BME280;45213;32.654;-115.458;2023-04-19T08:24:23;101016.84;;;18.03;21.10
59409;BME280;45213;32.654;-115.458;2023-04-19T08:26:49;101019.34;;;18.10;20.38
59409;BME280;45213;32.654;-115.458;2023-04-19T08:29:22;101013.34;;;18.02;20.86
59409;BME280;45213;32.654;-115.458;2023-04-19T08:31:49;101013.34;;;18.04;21.10
59409;BME280;45213;32.654;-115.458;2023-04-19T08:34:15;101011.03;;;17.84;21.41
59409;BME280;45213;32.654;-115.458;2023-04-19T08:36:42;101002.66;;;17.60;22.01
59409;BME280;45213;32.654;-115.458;2023-04-19T08:39:11;101012.34;;;17.57;21.69
59409;BME280;45213;32.654;-115.458;2023-04-19T08:41:39;101003.44;;;17.64;21.33
59409;BME280;45213;32.654;-115.458;2023-04-19T08:44:06;100998.25;;;17.59;20.86
59409;BME280;45213;32.654;-115.458;2023-04-19T08:46:32;101000.63;;;17.74;20.16
59409;BME280;45213;32.654;-115.458;2023-04-19T08:48:59;100995.31;;;17.78;19.97
59409;BME280;45213;32.654;-115.458;2023-04-19T08:51:27;100977.88;;;17.69;20.88
59409;BME280;45213;32.654;-115.458;2023-04-19T08:53:55;100980.69;;;17.60;20.56
59409;BME280;45213;32.654;-115.458;2023-04-19T08:56:23;100989.41;;;17.63;20.60
59409;BME280;45213;32.654;-115.458;2023-04-19T08:58:50;100986.94;;;17.54;20.29
59409;BME280;45213;32.654;-115.458;2023-04-19T09:01:17;100982.59;;;17.50;20.42
59409;BME280;45213;32.654;-115.458;2023-04-19T09:03:44;100973.84;;;17.51;19.14
59409;BME280;45213;32.654;-115.458;2023-04-19T09:06:11;100974.53;;;17.62;18.70
59409;BME280;45213;32.654;-115.458;2023-04-19T09:08:39;100962.13;;;17.67;18.52
59409;BME280;45213;32.654;-115.458;2023-04-19T09:11:06;100963.66;;;17.81;18.16
59409;BME280;45213;32.654;-115.458;2023-04-19T09:13:34;100961.22;;;17.70;18.40
59409;BME280;45213;32.654;-115.458;2023-04-19T09:16:05;100962.97;;;17.69;19.66
59409;BME280;45213;32.654;-115.458;2023-04-19T09:18:33;100974.53;;;17.62;20.91
59409;BME280;45213;32.654;-115.458;2023-04-19T09:21:31;100982.59;;;17.50;21.94
59409;BME280;45213;32.654;-115.458;2023-04-19T09:23:59;100978.50;;;17.33;22.10
59409;BME280;45213;32.654;-115.458;2023-04-19T09:26:26;100978.50;;;17.32;22.38
59409;BME280;45213;32.654;-115.458;2023-04-19T09:28:57;100967.13;;;17.31;21.88
59409;BME280;45213;32.654;-115.458;2023-04-19T09:31:26;100971.47;;;17.32;20.84
59409;BME280;45213;32.654;-115.458;2023-04-19T09:33:53;100961.75;;;17.38;21.15
59409;BME280;45213;32.654;-115.458;2023-04-19T09:36:31;100963.31;;;17.49;19.55
59409;BME280;45213;32.654;-115.458;2023-04-19T09:38:58;100962.31;;;17.58;19.21
59409;BME280;45213;32.654;-115.458;2023-04-19T09:41:25;100966.56;;;17.65;18.39
59409;BME280;45213;32.654;-115.458;2023-04-19T09:43:52;100956.03;;;17.65;18.78
59409;BME280;45213;32.654;-115.458;2023-04-19T09:46:35;100955.25;;;17.60;19.00
59409;BME280;45213;32.654;-115.458;2023-04-19T09:49:22;100954.41;;;17.58;19.51
59409;BME280;45213;32.654;-115.458;2023-04-19T09:51:54;100950.00;;;17.57;19.89
59409;BME280;45213;32.654;-115.458;2023-04-19T09:54:23;100966.63;;;17.61;20.32
59409;BME280;45213;32.654;-115.458;2023-04-19T09:56:50;100959.06;;;17.41;20.85
59409;BME280;45213;32.654;-115.458;2023-04-19T09:59:20;100969.75;;;17.31;20.12
59409;BME280;45213;32.654;-115.458;2023-04-19T10:01:53;100961.91;;;17.28;20.07
59409;BME280;45213;32.654;-115.458;2023-04-19T10:04:21;100961.78;;;17.36;19.54
59409;BME280;45213;32.654;-115.458;2023-04-19T10:06:49;100965.25;;;17.38;19.75
59409;BME280;45213;32.654;-115.458;2023-04-19T10:09:23;100973.16;;;17.37;20.04
59409;BME280;45213;32.654;-115.458;2023-04-19T10:11:52;100974.00;;;17.40;19.95
59409;BME280;45213;32.654;-115.458;2023-04-19T10:14:22;100980.22;;;17.35;20.01
59409;BME280;45213;32.654;-115.458;2023-04-19T10:16:55;100974.09;;;17.32;20.31
59409;BME280;45213;32.654;-115.458;2023-04-19T10:19:22;100982.97;;;17.28;20.46
59409;BME280;45213;32.654;-115.458;2023-04-19T10:21:50;100973.53;;;17.15;20.88
59409;BME280;45213;32.654;-115.458;2023-04-19T10:24:17;100977.03;;;17.14;20.96
59409;BME280;45213;32.654;-115.458;2023-04-19T10:29:55;100985.00;;;17.09;20.97
59409;BME280;45213;32.654;-115.458;2023-04-19T10:32:22;100986.59;;;17.20;20.56
59409;BME280;45213;32.654;-115.458;2023-04-19T10:34:51;100989.94;;;17.31;18.98
59409;BME280;45213;32.654;-115.458;2023-04-19T10:37:22;101004.59;;;17.46;18.61
59409;BME280;45213;32.654;-115.458;2023-04-19T10:39:51;101000.88;;;17.59;18.70
59409;BME280;45213;32.654;-115.458;2023-04-19T10:42:17;101008.63;;;17.68;18.60
59409;BME280;45213;32.654;-115.458;2023-04-19T10:47:50;101000.84;;;17.62;18.50
59409;BME280;45213;32.654;-115.458;2023-04-19T10:50:17;100997.41;;;17.57;18.69
59409;BME280;45213;32.654;-115.458;2023-04-19T10:52:44;100997.56;;;17.48;18.98
59409;BME280;45213;32.654;-115.458;2023-04-19T10:55:14;100994.84;;;17.52;18.74
59409;BME280;45213;32.654;-115.458;2023-04-19T10:58:03;101005.28;;;17.60;18.81
59409;BME280;45213;32.654;-115.458;2023-04-19T11:00:31;101010.72;;;17.48;18.98
59409;BME280;45213;32.654;-115.458;2023-04-19T11:06:15;101022.25;;;17.41;19.28
59409;BME280;45213;32.654;-115.458;2023-04-19T11:08:44;101015.28;;;17.37;19.04
59409;BME280;45213;32.654;-115.458;2023-04-19T11:11:12;101024.88;;;17.41;19.32
59409;BME280;45213;32.654;-115.458;2023-04-19T11:13:43;101027.50;;;17.42;19.28
59409;BME280;45213;32.654;-115.458;2023-04-19T11:16:12;101033.69;;;17.40;19.11
59409;BME280;45213;32.654;-115.458;2023-04-19T11:18:38;101023.97;;;17.42;18.35
59409;BME280;45213;32.654;-115.458;2023-04-19T11:21:05;101037.97;;;17.47;18.20
59409;BME280;45213;32.654;-115.458;2023-04-19T11:23:32;101040.44;;;17.56;17.85
59409;BME280;45213;32.654;-115.458;2023-04-19T11:25:59;101056.16;;;17.61;18.45
59409;BME280;45213;32.654;-115.458;2023-04-19T11:28:25;101052.41;;;17.18;23.34
59409;BME280;45213;32.654;-115.458;2023-04-19T11:30:53;101060.94;;;16.66;24.59
59409;BME280;45213;32.654;-115.458;2023-04-19T11:33:20;101062.91;;;16.45;24.83
59409;BME280;45213;32.654;-115.458;2023-04-19T11:35:50;101057.59;;;16.52;24.17
59409;BME280;45213;32.654;-115.458;2023-04-19T11:38:17;101067.03;;;16.68;22.55
59409;BME280;45213;32.654;-115.458;2023-04-19T11:40:43;101074.00;;;16.72;23.74
59409;BME280;45213;32.654;-115.458;2023-04-19T11:43:10;101065.44;;;16.55;24.74
59409;BME280;45213;32.654;-115.458;2023-04-19T11:45:37;101076.97;;;16.44;25.44
59409;BME280;45213;32.654;-115.458;2023-04-19T11:48:04;101081.31;;;16.45;25.33
59409;BME280;45213;32.654;-115.458;2023-04-19T11:50:40;101083.84;;;16.56;25.69
59409;BME280;45213;32.654;-115.458;2023-04-19T11:53:20;101093.59;;;16.46;25.96
59409;BME280;45213;32.654;-115.458;2023-04-19T11:55:50;101101.53;;;16.37;25.88
59409;BME280;45213;32.654;-115.458;2023-04-19T11:58:31;101093.59;;;16.46;24.62
59409;BME280;45213;32.654;-115.458;2023-04-19T12:01:10;101095.25;;;16.52;23.64
59409;BME280;45213;32.654;-115.458;2023-04-19T12:03:48;101090.72;;;16.66;23.58
59409;BME280;45213;32.654;-115.458;2023-04-19T12:06:17;101093.28;;;16.74;22.61
59409;BME280;45213;32.654;-115.458;2023-04-19T12:08:52;101091.53;;;16.73;21.95
59409;BME280;45213;32.654;-115.458;2023-04-19T12:11:22;101093.16;;;16.86;21.48
59409;BME280;45213;32.654;-115.458;2023-04-19T12:14:11;101093.94;;;16.93;21.97
59409;BME280;45213;32.654;-115.458;2023-04-19T12:16:38;101094.06;;;16.85;21.98
59409;BME280;45213;32.654;-115.458;2023-04-19T12:19:16;101098.47;;;16.83;21.94
59409;BME280;45213;32.654;-115.458;2023-04-19T12:21:44;101091.50;;;16.79;21.37
59409;BME280;45213;32.654;-115.458;2023-04-19T12:24:14;101087.16;;;16.70;21.46
59409;BME280;45213;32.654;-115.458;2023-04-19T12:26:54;101095.94;;;16.71;21.33
59409;BME280;45213;32.654;-115.458;2023-04-19T12:29:22;101096.78;;;16.73;21.71
59409;BME280;45213;32.654;-115.458;2023-04-19T12:31:48;101094.25;;;16.67;21.99
59409;BME280;45213;32.654;-115.458;2023-04-19T12:34:15;101106.47;;;16.69;22.26
59409;BME280;45213;32.654;-115.458;2023-04-19T12:36:41;101103.00;;;16.66;22.10